createdAt,value
2019-02-22T00:01:10.969Z,26.20
2019-02-22T00:06:35.606Z,28.27
2019-02-22T00:12:00.301Z,27.30
2019-02-22T00:17:24.219Z,21.43
2019-02-22T00:22:48.271Z,17.20
2019-02-22T00:28:13.196Z,15.70
2019-02-22T00:33:37.334Z,18.07
2019-02-22T00:39:01.836Z,16.30
2019-02-22T00:44:27.158Z,17.77
2019-02-22T00:49:51.560Z,16.87
2019-02-22T00:55:15.360Z,16.63
2019-02-22T01:00:39.712Z,15.03
2019-02-22T01:06:04.215Z,13.07
2019-02-22T01:11:28.337Z,14.37
2019-02-22T01:16:52.940Z,14.87
2019-02-22T01:22:17.329Z,13.23
2019-02-22T01:27:42.395Z,11.67
2019-02-22T01:33:06.931Z,11.90
2019-02-22T01:38:30.609Z,12.27
2019-02-22T01:43:54.847Z,11.43
2019-02-22T01:49:19.857Z,11.10
2019-02-22T01:54:44.555Z,10.93
2019-02-22T02:00:10.812Z,10.50
2019-02-22T02:05:35.314Z,10.83
2019-02-22T02:11:00.023Z,10.03
2019-02-22T02:16:24.577Z,8.43
2019-02-22T02:21:49.047Z,8.80
2019-02-22T02:27:12.995Z,7.63
2019-02-22T02:32:37.502Z,8.00
2019-02-22T02:38:02.205Z,7.37
2019-02-22T02:43:26.644Z,7.03
2019-02-22T02:48:51.107Z,6.80
2019-02-22T02:54:15.626Z,5.77
2019-02-22T02:59:40.304Z,5.30
2019-02-22T03:05:05.234Z,5.87
2019-02-22T03:10:31.540Z,4.90
2019-02-22T03:15:56.152Z,4.40
2019-02-22T03:21:20.965Z,5.17
2019-02-22T03:26:45.110Z,4.17
2019-02-22T03:32:09.173Z,5.00
2019-02-22T03:37:33.648Z,4.30
2019-02-22T03:42:57.242Z,4.47
2019-02-22T03:48:22.310Z,4.30
2019-02-22T03:54:05.240Z,4.10
2019-02-22T03:59:29.064Z,3.50
2019-02-22T04:04:53.707Z,2.87
2019-02-22T04:10:17.286Z,3.40
2019-02-22T04:15:41.972Z,3.37
2019-02-22T04:21:06.853Z,3.10
2019-02-22T04:26:31.160Z,3.87
2019-02-22T04:31:54.763Z,4.60
2019-02-22T04:37:18.502Z,4.97
2019-02-22T04:42:42.252Z,5.83
2019-02-22T04:48:06.147Z,7.67
2019-02-22T04:53:30.772Z,8.47
2019-02-22T04:58:57.176Z,10.13
2019-02-22T05:04:20.781Z,10.17
2019-02-22T05:09:44.956Z,9.87
2019-02-22T05:15:12.956Z,10.23
2019-02-22T05:20:35.270Z,10.30
2019-02-22T05:25:59.181Z,11.77
2019-02-22T05:31:24.372Z,12.93
2019-02-22T05:36:48.035Z,20.27
2019-02-22T05:42:22.269Z,22.30
2019-02-22T05:47:37.368Z,21.77
2019-02-22T05:53:02.235Z,23.90
2019-02-22T05:58:27.032Z,21.37
2019-02-22T06:03:51.479Z,18.60
2019-02-22T06:09:15.472Z,20.97
2019-02-22T06:14:40.260Z,19.93
2019-02-22T06:20:04.309Z,16.60
2019-02-22T06:25:28.638Z,15.13
2019-02-22T06:30:52.342Z,11.80
2019-02-22T06:36:16.575Z,8.90
2019-02-22T06:41:41.980Z,4.53
2019-02-22T06:47:05.676Z,5.73
2019-02-22T06:52:29.866Z,5.30
2019-02-22T06:57:53.670Z,6.00
2019-02-22T07:03:17.499Z,5.33
2019-02-22T07:08:41.939Z,5.80
2019-02-22T07:14:05.710Z,5.60
2019-02-22T07:19:30.386Z,5.30
2019-02-22T07:24:54.339Z,4.07
2019-02-22T07:30:19.086Z,3.70
2019-02-22T07:35:43.735Z,3.90
2019-02-22T07:41:08.758Z,3.10
2019-02-22T07:46:32.830Z,2.83
2019-02-22T07:51:56.467Z,3.00
2019-02-22T07:57:20.715Z,3.03
2019-02-22T08:02:45.363Z,2.20
2019-02-22T08:08:10.398Z,2.60
2019-02-22T08:13:34.814Z,2.30
2019-02-22T08:19:01.801Z,2.33
2019-02-22T08:24:25.906Z,2.63
2019-02-22T08:29:50.923Z,2.20
2019-02-22T08:35:16.685Z,2.50
2019-02-22T08:40:41.153Z,2.00
2019-02-22T08:46:05.037Z,2.67
2019-02-22T08:51:29.272Z,2.57
2019-02-22T08:56:53.203Z,2.50
2019-02-22T09:02:17.116Z,2.63
2019-02-22T09:07:42.071Z,2.47
2019-02-22T09:13:06.762Z,2.10
2019-02-22T09:18:31.209Z,2.00
2019-02-22T09:23:58.335Z,2.17
2019-02-22T09:29:22.917Z,1.83
2019-02-22T09:34:47.578Z,2.10
2019-02-22T09:40:11.419Z,2.00
2019-02-22T09:45:36.545Z,2.00
2019-02-22T09:51:01.413Z,2.40
2019-02-22T09:56:25.399Z,2.23
2019-02-22T10:01:50.073Z,2.10
2019-02-22T10:07:13.909Z,2.10
2019-02-22T10:12:38.874Z,2.00
2019-02-22T10:18:03.325Z,2.20
2019-02-22T10:23:27.776Z,2.20
2019-02-22T10:28:52.511Z,1.97
2019-02-22T10:34:18.365Z,2.60
2019-02-22T10:39:43.390Z,2.63
2019-02-22T10:45:08.226Z,2.37
2019-02-22T10:50:32.185Z,2.23
2019-02-22T10:55:56.053Z,2.43
2019-02-22T11:01:20.393Z,2.60
2019-02-22T11:06:44.748Z,2.30
2019-02-22T11:12:08.615Z,2.30
2019-02-22T11:17:32.465Z,2.47
2019-02-22T11:22:56.797Z,2.20
2019-02-22T11:28:20.569Z,2.13
2019-02-22T11:33:45.488Z,2.10
2019-02-22T11:39:10.402Z,2.20
2019-02-22T11:44:40.287Z,2.03
2019-02-22T11:50:01.120Z,2.63
2019-02-22T11:55:26.693Z,2.00
2019-02-22T12:00:51.010Z,1.83
2019-02-22T12:06:15.310Z,2.40
2019-02-22T12:11:40.248Z,1.90
2019-02-22T12:17:04.104Z,2.40
2019-02-22T12:22:28.702Z,2.37
2019-02-22T12:27:52.576Z,2.40
2019-02-22T12:33:17.384Z,2.50
2019-02-22T12:38:41.853Z,2.17
2019-02-22T12:44:06.337Z,1.97
2019-02-22T12:49:30.053Z,2.00
2019-02-22T12:54:54.725Z,2.40
2019-02-22T13:00:18.818Z,1.90
2019-02-22T13:05:43.523Z,2.43
2019-02-22T13:11:07.876Z,2.60
2019-02-22T13:16:32.559Z,2.33
2019-02-22T13:21:56.638Z,2.33
2019-02-22T13:27:21.837Z,2.43
2019-02-22T13:32:45.562Z,2.30
2019-02-22T13:38:09.981Z,2.20
2019-02-22T13:43:34.893Z,2.30
2019-02-22T13:48:59.403Z,2.67
2019-02-22T13:54:24.052Z,2.83
2019-02-22T13:59:48.645Z,3.20
2019-02-22T14:05:13.418Z,2.60
2019-02-22T14:10:38.432Z,2.80
2019-02-22T14:16:02.864Z,2.80
2019-02-22T14:21:26.409Z,3.23
2019-02-22T14:26:50.848Z,3.23
2019-02-22T14:32:15.633Z,2.87
2019-02-22T14:37:39.820Z,2.20
2019-02-22T14:43:03.601Z,2.67
2019-02-22T14:48:28.092Z,2.93
2019-02-22T14:53:52.335Z,3.00
2019-02-22T14:59:16.210Z,3.43
2019-02-22T15:04:40.542Z,2.87
2019-02-22T15:10:06.097Z,2.83
2019-02-22T15:16:00.291Z,2.73
2019-02-22T15:21:18.028Z,3.17
2019-02-22T15:26:42.620Z,2.67
2019-02-22T15:32:07.403Z,3.57
2019-02-22T15:37:32.036Z,3.43
2019-02-22T15:42:55.694Z,3.57
2019-02-22T15:48:20.005Z,3.57
2019-02-22T15:53:44.106Z,3.93
2019-02-22T15:59:08.558Z,3.63
2019-02-22T16:04:38.591Z,3.47
2019-02-22T16:10:02.640Z,4.17
2019-02-22T16:15:28.393Z,3.80
2019-02-22T16:20:53.585Z,3.90
2019-02-22T16:26:21.429Z,3.63
2019-02-22T16:31:45.390Z,4.27
2019-02-22T16:37:09.346Z,4.23
2019-02-22T16:42:32.929Z,5.10
2019-02-22T16:47:57.800Z,4.97
2019-02-22T16:53:21.805Z,4.80
2019-02-22T16:58:45.441Z,5.70
2019-02-22T17:04:10.171Z,5.00
2019-02-22T17:09:34.531Z,5.87
2019-02-22T17:14:59.142Z,4.50
2019-02-22T17:20:22.834Z,5.33
2019-02-22T17:25:47.566Z,5.40
2019-02-22T17:31:12.384Z,5.70
2019-02-22T17:36:36.904Z,6.03
2019-02-22T17:42:00.562Z,5.43
2019-02-22T17:47:24.935Z,5.70
2019-02-22T17:52:49.500Z,6.30
2019-02-22T17:58:24.031Z,5.77
2019-02-22T18:03:40.055Z,5.43
2019-02-22T18:09:06.066Z,5.83
2019-02-22T18:14:30.468Z,6.77
2019-02-22T18:19:54.383Z,6.67
2019-02-22T18:25:19.772Z,6.93
2019-02-22T18:30:44.270Z,6.40
2019-02-22T18:36:15.039Z,7.10
2019-02-22T18:41:38.430Z,7.87
2019-02-22T18:47:02.272Z,7.60
2019-02-22T18:58:41.729Z,9.37
2019-02-22T19:04:08.857Z,10.43
2019-02-22T19:09:41.824Z,10.40
2019-02-22T19:15:08.853Z,10.93
2019-02-22T19:20:33.460Z,9.10
2019-02-22T19:26:08.105Z,17.77
2019-02-22T19:31:34.982Z,12.13
2019-02-22T19:36:58.721Z,11.07
2019-02-22T19:42:22.971Z,8.73
2019-02-22T19:47:46.915Z,10.70
2019-02-22T19:53:11.890Z,10.80
2019-02-22T19:58:36.450Z,11.67
2019-02-22T20:04:02.446Z,11.40
2019-02-22T20:09:26.321Z,12.57
2019-02-22T20:14:50.563Z,10.07
2019-02-22T20:20:15.690Z,9.17
2019-02-22T20:25:40.420Z,9.40
2019-02-22T20:31:05.444Z,9.60
2019-02-22T20:36:29.369Z,9.57
2019-02-22T20:41:53.754Z,9.80
2019-02-22T20:47:17.176Z,8.33
2019-02-22T20:52:41.960Z,8.00
2019-02-22T20:58:05.927Z,7.43
2019-02-22T21:03:30.646Z,7.13
2019-02-22T21:08:55.380Z,7.63
2019-02-22T21:14:19.454Z,7.90
2019-02-22T21:19:44.086Z,7.60
2019-02-22T21:25:08.616Z,7.00
2019-02-22T21:30:32.990Z,7.33
2019-02-22T21:35:58.022Z,6.40
2019-02-22T21:41:24.620Z,7.57
2019-02-22T21:46:49.458Z,7.27
2019-02-22T21:52:14.907Z,7.07
2019-02-22T21:57:39.523Z,7.53
2019-02-22T22:03:06.347Z,8.13
2019-02-22T22:08:30.041Z,6.90
2019-02-22T22:13:53.975Z,6.80
2019-02-22T22:19:17.815Z,6.53
2019-02-22T22:24:42.215Z,7.87
2019-02-22T22:30:07.455Z,7.70
2019-02-22T22:35:32.468Z,7.03
2019-02-22T22:40:56.787Z,7.90
2019-02-22T22:46:21.411Z,7.17
2019-02-22T22:51:45.939Z,7.80
2019-02-22T22:57:10.598Z,6.97
2019-02-22T23:02:35.266Z,6.93
2019-02-22T23:07:59.970Z,8.70
2019-02-22T23:13:24.619Z,8.17
2019-02-22T23:18:49.171Z,6.37
2019-02-22T23:24:14.004Z,6.73
2019-02-22T23:29:37.594Z,6.70
2019-02-22T23:35:01.424Z,7.50
2019-02-22T23:40:26.112Z,7.63
2019-02-22T23:45:50.044Z,7.23
2019-02-22T23:51:14.427Z,6.97
2019-02-22T23:56:38.414Z,7.23
